sensor_id;sensor_type;location;lat;lon;timestamp;temperature;humidity
13992;DHT22;7070;53.586;9.692;2022-08-19T00:02:17;20.40;78.90
13992;DHT22;7070;53.586;9.692;2022-08-19T00:04:44;20.40;79.00
13992;DHT22;7070;53.586;9.692;2022-08-19T00:07:13;20.40;79.10
13992;DHT22;7070;53.586;9.692;2022-08-19T00:09:40;20.40;79.20
13992;DHT22;7070;53.586;9.692;2022-08-19T00:12:09;20.40;79.30
13992;DHT22;7070;53.586;9.692;2022-08-19T00:14:36;20.40;79.30
13992;DHT22;7070;53.586;9.692;2022-08-19T00:17:04;20.40;79.40
13992;DHT22;7070;53.586;9.692;2022-08-19T00:19:32;20.40;79.40
13992;DHT22;7070;53.586;9.692;2022-08-19T00:21:59;20.40;79.40
13992;DHT22;7070;53.586;9.692;2022-08-19T00:24:26;20.40;79.50
13992;DHT22;7070;53.586;9.692;2022-08-19T00:26:55;20.40;79.60
13992;DHT22;7070;53.586;9.692;2022-08-19T00:29:24;20.40;79.60
13992;DHT22;7070;53.586;9.692;2022-08-19T00:31:51;20.40;79.50
13992;DHT22;7070;53.586;9.692;2022-08-19T00:34:20;20.40;79.60
13992;DHT22;7070;53.586;9.692;2022-08-19T00:36:48;20.40;80.30
13992;DHT22;7070;53.586;9.692;2022-08-19T00:39:16;20.40;80.50
13992;DHT22;7070;53.586;9.692;2022-08-19T00:41:44;20.50;79.70
13992;DHT22;7070;53.586;9.692;2022-08-19T00:44:15;20.40;79.60
13992;DHT22;7070;53.586;9.692;2022-08-19T00:46:45;20.50;79.80
13992;DHT22;7070;53.586;9.692;2022-08-19T00:49:16;20.50;79.70
13992;DHT22;7070;53.586;9.692;2022-08-19T00:51:47;20.50;79.70
13992;DHT22;7070;53.586;9.692;2022-08-19T00:54:15;20.50;79.60
13992;DHT22;7070;53.586;9.692;2022-08-19T00:56:42;20.50;79.70
13992;DHT22;7070;53.586;9.692;2022-08-19T00:59:10;20.60;79.80
13992;DHT22;7070;53.586;9.692;2022-08-19T01:01:39;20.60;79.90
13992;DHT22;7070;53.586;9.692;2022-08-19T01:04:08;20.60;80.60
13992;DHT22;7070;53.586;9.692;2022-08-19T01:06:36;20.60;80.70
13992;DHT22;7070;53.586;9.692;2022-08-19T01:09:04;20.60;79.90
13992;DHT22;7070;53.586;9.692;2022-08-19T01:11:31;20.60;79.90
13992;DHT22;7070;53.586;9.692;2022-08-19T01:13:59;20.70;80.00
13992;DHT22;7070;53.586;9.692;2022-08-19T01:16:27;20.70;80.10
13992;DHT22;7070;53.586;9.692;2022-08-19T01:18:55;20.70;80.00
13992;DHT22;7070;53.586;9.692;2022-08-19T01:21:26;20.70;80.10
13992;DHT22;7070;53.586;9.692;2022-08-19T01:23:56;20.70;79.80
13992;DHT22;7070;53.586;9.692;2022-08-19T01:26:24;20.80;80.10
13992;DHT22;7070;53.586;9.692;2022-08-19T01:28:54;20.70;80.00
13992;DHT22;7070;53.586;9.692;2022-08-19T01:31:24;20.70;79.90
13992;DHT22;7070;53.586;9.692;2022-08-19T01:33:53;20.70;79.90
13992;DHT22;7070;53.586;9.692;2022-08-19T01:36:26;20.70;79.90
13992;DHT22;7070;53.586;9.692;2022-08-19T01:38:55;20.70;79.80
13992;DHT22;7070;53.586;9.692;2022-08-19T01:41:23;20.70;79.90
13992;DHT22;7070;53.586;9.692;2022-08-19T01:43:50;20.70;80.00
13992;DHT22;7070;53.586;9.692;2022-08-19T01:46:17;20.70;80.00
13992;DHT22;7070;53.586;9.692;2022-08-19T01:48:45;20.70;80.10
13992;DHT22;7070;53.586;9.692;2022-08-19T01:51:12;20.70;80.00
13992;DHT22;7070;53.586;9.692;2022-08-19T01:53:39;20.70;80.00
13992;DHT22;7070;53.586;9.692;2022-08-19T01:56:08;20.70;80.00
13992;DHT22;7070;53.586;9.692;2022-08-19T01:58:38;20.70;79.90
13992;DHT22;7070;53.586;9.692;2022-08-19T02:01:07;20.70;79.80
13992;DHT22;7070;53.586;9.692;2022-08-19T02:03:34;20.70;79.90
13992;DHT22;7070;53.586;9.692;2022-08-19T02:06:02;20.70;80.00
13992;DHT22;7070;53.586;9.692;2022-08-19T02:08:32;20.70;79.90
13992;DHT22;7070;53.586;9.692;2022-08-19T02:10:59;20.70;79.80
13992;DHT22;7070;53.586;9.692;2022-08-19T02:13:27;20.70;79.90
13992;DHT22;7070;53.586;9.692;2022-08-19T02:15:54;20.70;79.80
13992;DHT22;7070;53.586;9.692;2022-08-19T02:18:21;20.70;79.90
13992;DHT22;7070;53.586;9.692;2022-08-19T02:20:48;20.60;79.80
13992;DHT22;7070;53.586;9.692;2022-08-19T02:23:16;20.70;79.80
13992;DHT22;7070;53.586;9.692;2022-08-19T02:25:43;20.60;79.70
13992;DHT22;7070;53.586;9.692;2022-08-19T02:28:11;20.70;79.80
13992;DHT22;7070;53.586;9.692;2022-08-19T02:30:41;20.70;79.80
13992;DHT22;7070;53.586;9.692;2022-08-19T02:33:08;20.70;79.60
13992;DHT22;7070;53.586;9.692;2022-08-19T02:35:35;20.70;79.80
13992;DHT22;7070;53.586;9.692;2022-08-19T02:38:02;20.60;79.70
13992;DHT22;7070;53.586;9.692;2022-08-19T02:40:48;20.60;79.70
13992;DHT22;7070;53.586;9.692;2022-08-19T02:43:17;20.60;79.70
13992;DHT22;7070;53.586;9.692;2022-08-19T02:45:47;20.60;79.80
13992;DHT22;7070;53.586;9.692;2022-08-19T02:48:15;20.60;79.80
13992;DHT22;7070;53.586;9.692;2022-08-19T02:50:41;20.60;79.90
13992;DHT22;7070;53.586;9.692;2022-08-19T02:53:08;20.60;79.90
13992;DHT22;7070;53.586;9.692;2022-08-19T02:55:36;20.50;79.80
13992;DHT22;7070;53.586;9.692;2022-08-19T02:58:08;20.50;79.80
13992;DHT22;7070;53.586;9.692;2022-08-19T03:00:35;20.50;80.60
13992;DHT22;7070;53.586;9.692;2022-08-19T03:03:03;20.50;79.80
13992;DHT22;7070;53.586;9.692;2022-08-19T03:05:30;20.50;79.80
13992;DHT22;7070;53.586;9.692;2022-08-19T03:07:57;20.50;79.90
13992;DHT22;7070;53.586;9.692;2022-08-19T03:10:24;20.50;79.90
13992;DHT22;7070;53.586;9.692;2022-08-19T03:12:51;20.50;79.90
13992;DHT22;7070;53.586;9.692;2022-08-19T03:15:18;20.50;79.90
13992;DHT22;7070;53.586;9.692;2022-08-19T03:17:45;20.50;79.80
13992;DHT22;7070;53.586;9.692;2022-08-19T03:20:13;20.50;79.80
13992;DHT22;7070;53.586;9.692;2022-08-19T03:22:39;20.50;79.80
13992;DHT22;7070;53.586;9.692;2022-08-19T03:25:07;20.50;79.80
13992;DHT22;7070;53.586;9.692;2022-08-19T03:27:34;20.40;79.70
13992;DHT22;7070;53.586;9.692;2022-08-19T03:30:01;20.50;79.80
13992;DHT22;7070;53.586;9.692;2022-08-19T03:32:29;20.50;79.80
13992;DHT22;7070;53.586;9.692;2022-08-19T03:34:56;20.50;79.70
13992;DHT22;7070;53.586;9.692;2022-08-19T03:37:24;20.40;79.60
13992;DHT22;7070;53.586;9.692;2022-08-19T03:39:51;20.40;79.60
13992;DHT22;7070;53.586;9.692;2022-08-19T03:42:18;20.40;79.70
13992;DHT22;7070;53.586;9.692;2022-08-19T03:44:45;20.40;79.70
13992;DHT22;7070;53.586;9.692;2022-08-19T03:47:12;20.40;79.70
13992;DHT22;7070;53.586;9.692;2022-08-19T03:49:42;20.40;79.60
13992;DHT22;7070;53.586;9.692;2022-08-19T03:52:09;20.40;79.70
13992;DHT22;7070;53.586;9.692;2022-08-19T03:54:37;20.40;79.70
13992;DHT22;7070;53.586;9.692;2022-08-19T03:57:05;20.40;79.60
13992;DHT22;7070;53.586;9.692;2022-08-19T03:59:34;20.30;79.60
13992;DHT22;7070;53.586;9.692;2022-08-19T04:02:06;20.40;79.70
13992;DHT22;7070;53.586;9.692;2022-08-19T04:04:34;20.30;79.60
13992;DHT22;7070;53.586;9.692;2022-08-19T04:07:01;20.30;79.70
13992;DHT22;7070;53.586;9.692;2022-08-19T04:09:28;20.30;79.70
13992;DHT22;7070;53.586;9.692;2022-08-19T04:11:57;20.30;79.70
13992;DHT22;7070;53.586;9.692;2022-08-19T04:14:26;20.30;79.60
13992;DHT22;7070;53.586;9.692;2022-08-19T04:16:55;20.20;79.60
13992;DHT22;7070;53.586;9.692;2022-08-19T04:19:22;20.30;80.40
13992;DHT22;7070;53.586;9.692;2022-08-19T04:21:51;20.20;79.70
13992;DHT22;7070;53.586;9.692;2022-08-19T04:24:19;20.20;79.70
13992;DHT22;7070;53.586;9.692;2022-08-19T04:26:47;20.10;79.60
13992;DHT22;7070;53.586;9.692;2022-08-19T04:29:17;20.10;79.70
13992;DHT22;7070;53.586;9.692;2022-08-19T04:31:47;20.10;79.70
13992;DHT22;7070;53.586;9.692;2022-08-19T04:34:16;20.10;79.90
13992;DHT22;7070;53.586;9.692;2022-08-19T04:36:44;20.10;79.90
13992;DHT22;7070;53.586;9.692;2022-08-19T04:39:14;20.00;79.70
13992;DHT22;7070;53.586;9.692;2022-08-19T04:41:41;20.00;79.70
13992;DHT22;7070;53.586;9.692;2022-08-19T04:44:27;20.00;79.80
13992;DHT22;7070;53.586;9.692;2022-08-19T04:46:56;20.00;79.80
13992;DHT22;7070;53.586;9.692;2022-08-19T04:49:23;19.90;79.80
13992;DHT22;7070;53.586;9.692;2022-08-19T04:51:52;20.00;80.00
13992;DHT22;7070;53.586;9.692;2022-08-19T04:54:22;20.00;80.00
13992;DHT22;7070;53.586;9.692;2022-08-19T04:56:49;20.00;80.00
13992;DHT22;7070;53.586;9.692;2022-08-19T04:59:21;20.00;80.00
13992;DHT22;7070;53.586;9.692;2022-08-19T05:01:49;20.00;79.90
13992;DHT22;7070;53.586;9.692;2022-08-19T05:04:18;20.00;80.00
13992;DHT22;7070;53.586;9.692;2022-08-19T05:06:45;20.00;80.00
13992;DHT22;7070;53.586;9.692;2022-08-19T05:09:13;20.00;80.00
13992;DHT22;7070;53.586;9.692;2022-08-19T05:11:41;20.00;80.00
13992;DHT22;7070;53.586;9.692;2022-08-19T05:14:09;20.10;80.00
13992;DHT22;7070;53.586;9.692;2022-08-19T05:16:38;20.00;80.00
13992;DHT22;7070;53.586;9.692;2022-08-19T05:19:07;20.10;80.00
13992;DHT22;7070;53.586;9.692;2022-08-19T05:21:51;20.10;79.90
13992;DHT22;7070;53.586;9.692;2022-08-19T05:24:36;20.00;79.80
13992;DHT22;7070;53.586;9.692;2022-08-19T05:27:03;20.00;79.90
13992;DHT22;7070;53.586;9.692;2022-08-19T05:29:32;20.00;79.90
13992;DHT22;7070;53.586;9.692;2022-08-19T05:32:00;20.00;80.00
13992;DHT22;7070;53.586;9.692;2022-08-19T05:34:29;20.10;80.00
13992;DHT22;7070;53.586;9.692;2022-08-19T05:36:58;20.10;79.90
13992;DHT22;7070;53.586;9.692;2022-08-19T05:39:27;20.10;79.90
13992;DHT22;7070;53.586;9.692;2022-08-19T05:41:57;20.10;79.90
13992;DHT22;7070;53.586;9.692;2022-08-19T05:44:25;20.10;79.90
13992;DHT22;7070;53.586;9.692;2022-08-19T05:46:52;20.20;80.10
13992;DHT22;7070;53.586;9.692;2022-08-19T05:49:21;20.20;80.00
13992;DHT22;7070;53.586;9.692;2022-08-19T05:51:50;20.20;79.90
13992;DHT22;7070;53.586;9.692;2022-08-19T05:54:17;20.30;80.00
13992;DHT22;7070;53.586;9.692;2022-08-19T05:56:45;20.30;80.00
13992;DHT22;7070;53.586;9.692;2022-08-19T05:59:13;20.30;80.00
13992;DHT22;7070;53.586;9.692;2022-08-19T06:01:43;20.40;80.10
13992;DHT22;7070;53.586;9.692;2022-08-19T06:04:11;20.50;80.00
13992;DHT22;7070;53.586;9.692;2022-08-19T06:06:38;20.50;79.90
13992;DHT22;7070;53.586;9.692;2022-08-19T06:09:07;20.60;79.90
13992;DHT22;7070;53.586;9.692;2022-08-19T06:11:38;20.60;79.60
13992;DHT22;7070;53.586;9.692;2022-08-19T06:14:08;20.60;79.60
13992;DHT22;7070;53.586;9.692;2022-08-19T06:16:35;20.70;79.40
13992;DHT22;7070;53.586;9.692;2022-08-19T06:19:05;20.70;80.00
13992;DHT22;7070;53.586;9.692;2022-08-19T06:21:34;20.70;79.20
13992;DHT22;7070;53.586;9.692;2022-08-19T06:24:03;20.70;79.30
13992;DHT22;7070;53.586;9.692;2022-08-19T06:26:32;20.70;79.10
13992;DHT22;7070;53.586;9.692;2022-08-19T06:29:00;20.60;78.90
13992;DHT22;7070;53.586;9.692;2022-08-19T06:31:28;20.70;79.10
13992;DHT22;7070;53.586;9.692;2022-08-19T06:33:56;20.70;79.10
13992;DHT22;7070;53.586;9.692;2022-08-19T06:36:26;20.70;79.10
13992;DHT22;7070;53.586;9.692;2022-08-19T06:38:56;20.70;79.00
13992;DHT22;7070;53.586;9.692;2022-08-19T06:41:23;20.70;79.00
13992;DHT22;7070;53.586;9.692;2022-08-19T06:43:52;20.70;79.00
13992;DHT22;7070;53.586;9.692;2022-08-19T06:46:19;20.70;78.90
13992;DHT22;7070;53.586;9.692;2022-08-19T06:48:46;20.70;78.90
13992;DHT22;7070;53.586;9.692;2022-08-19T06:51:14;20.80;79.00
13992;DHT22;7070;53.586;9.692;2022-08-19T06:53:44;20.80;78.80
13992;DHT22;7070;53.586;9.692;2022-08-19T06:56:13;20.80;78.80
13992;DHT22;7070;53.586;9.692;2022-08-19T06:58:40;20.80;78.70
13992;DHT22;7070;53.586;9.692;2022-08-19T07:01:09;20.80;78.60
13992;DHT22;7070;53.586;9.692;2022-08-19T07:03:37;20.90;78.60
13992;DHT22;7070;53.586;9.692;2022-08-19T07:06:05;20.90;78.60
13992;DHT22;7070;53.586;9.692;2022-08-19T07:08:33;20.90;78.50
13992;DHT22;7070;53.586;9.692;2022-08-19T07:11:02;20.90;78.60
13992;DHT22;7070;53.586;9.692;2022-08-19T07:13:28;20.90;78.60
13992;DHT22;7070;53.586;9.692;2022-08-19T07:15:58;21.00;78.70
13992;DHT22;7070;53.586;9.692;2022-08-19T07:18:26;21.00;78.60
13992;DHT22;7070;53.586;9.692;2022-08-19T07:21:02;21.00;78.50
13992;DHT22;7070;53.586;9.692;2022-08-19T07:23:29;21.00;78.30
13992;DHT22;7070;53.586;9.692;2022-08-19T07:25:56;21.10;78.50
13992;DHT22;7070;53.586;9.692;2022-08-19T07:28:23;21.10;78.50
13992;DHT22;7070;53.586;9.692;2022-08-19T07:30:50;21.10;78.40
13992;DHT22;7070;53.586;9.692;2022-08-19T07:33:17;21.10;78.30
13992;DHT22;7070;53.586;9.692;2022-08-19T07:35:46;21.20;78.50
13992;DHT22;7070;53.586;9.692;2022-08-19T07:38:13;21.20;78.50
13992;DHT22;7070;53.586;9.692;2022-08-19T07:40:44;21.30;78.70
13992;DHT22;7070;53.586;9.692;2022-08-19T07:43:17;21.40;78.40
13992;DHT22;7070;53.586;9.692;2022-08-19T07:45:51;21.40;78.40
13992;DHT22;7070;53.586;9.692;2022-08-19T07:48:18;21.50;78.30
13992;DHT22;7070;53.586;9.692;2022-08-19T07:50:50;21.50;78.00
13992;DHT22;7070;53.586;9.692;2022-08-19T07:53:17;21.50;77.80
13992;DHT22;7070;53.586;9.692;2022-08-19T07:55:48;21.60;77.90
13992;DHT22;7070;53.586;9.692;2022-08-19T07:58:19;21.60;77.80
13992;DHT22;7070;53.586;9.692;2022-08-19T08:00:48;21.50;77.60
13992;DHT22;7070;53.586;9.692;2022-08-19T08:03:16;21.60;78.00
13992;DHT22;7070;53.586;9.692;2022-08-19T08:05:43;21.50;77.80
13992;DHT22;7070;53.586;9.692;2022-08-19T08:08:31;21.50;77.70
13992;DHT22;7070;53.586;9.692;2022-08-19T08:11:18;21.50;77.60
13992;DHT22;7070;53.586;9.692;2022-08-19T08:13:45;21.50;77.60
13992;DHT22;7070;53.586;9.692;2022-08-19T08:16:13;21.50;77.60
13992;DHT22;7070;53.586;9.692;2022-08-19T08:18:40;21.50;77.70
13992;DHT22;7070;53.586;9.692;2022-08-19T08:21:08;21.40;77.70
13992;DHT22;7070;53.586;9.692;2022-08-19T08:23:37;21.40;77.90
13992;DHT22;7070;53.586;9.692;2022-08-19T08:26:04;21.40;77.90
13992;DHT22;7070;53.586;9.692;2022-08-19T08:28:30;21.40;77.90
13992;DHT22;7070;53.586;9.692;2022-08-19T08:30:58;21.40;77.90
13992;DHT22;7070;53.586;9.692;2022-08-19T08:33:27;21.40;77.90
13992;DHT22;7070;53.586;9.692;2022-08-19T08:35:55;21.40;77.90
13992;DHT22;7070;53.586;9.692;2022-08-19T08:38:22;21.40;77.90
13992;DHT22;7070;53.586;9.692;2022-08-19T08:40:52;21.30;77.90
13992;DHT22;7070;53.586;9.692;2022-08-19T08:43:24;21.30;77.90
13992;DHT22;7070;53.586;9.692;2022-08-19T08:45:59;21.30;77.90
13992;DHT22;7070;53.586;9.692;2022-08-19T08:48:44;21.30;77.80
13992;DHT22;7070;53.586;9.692;2022-08-19T08:51:17;21.30;77.80
13992;DHT22;7070;53.586;9.692;2022-08-19T08:53:47;21.40;78.10
13992;DHT22;7070;53.586;9.692;2022-08-19T08:56:17;21.40;78.20
13992;DHT22;7070;53.586;9.692;2022-08-19T08:58:50;21.40;78.20
13992;DHT22;7070;53.586;9.692;2022-08-19T09:01:18;21.40;78.00
13992;DHT22;7070;53.586;9.692;2022-08-19T09:03:46;21.40;78.00
13992;DHT22;7070;53.586;9.692;2022-08-19T09:06:17;21.40;78.10
13992;DHT22;7070;53.586;9.692;2022-08-19T09:08:54;21.50;78.00
13992;DHT22;7070;53.586;9.692;2022-08-19T09:11:39;21.50;78.00
13992;DHT22;7070;53.586;9.692;2022-08-19T09:14:10;21.50;78.00
13992;DHT22;7070;53.586;9.692;2022-08-19T09:16:40;21.50;78.00
13992;DHT22;7070;53.586;9.692;2022-08-19T09:19:07;21.60;78.30
13992;DHT22;7070;53.586;9.692;2022-08-19T09:21:36;21.60;78.30
13992;DHT22;7070;53.586;9.692;2022-08-19T09:24:05;21.70;79.20
13992;DHT22;7070;53.586;9.692;2022-08-19T09:26:33;21.80;78.50
13992;DHT22;7070;53.586;9.692;2022-08-19T09:29:00;21.90;78.70
13992;DHT22;7070;53.586;9.692;2022-08-19T09:31:30;22.10;78.90
13992;DHT22;7070;53.586;9.692;2022-08-19T09:33:58;22.30;78.70
13992;DHT22;7070;53.586;9.692;2022-08-19T09:36:27;22.40;78.30
13992;DHT22;7070;53.586;9.692;2022-08-19T09:38:58;22.60;78.00
13992;DHT22;7070;53.586;9.692;2022-08-19T09:41:26;22.60;77.90
13992;DHT22;7070;53.586;9.692;2022-08-19T09:43:55;22.70;77.80
13992;DHT22;7070;53.586;9.692;2022-08-19T09:46:23;22.80;77.60
13992;DHT22;7070;53.586;9.692;2022-08-19T09:48:52;22.80;77.50
13992;DHT22;7070;53.586;9.692;2022-08-19T09:51:21;22.90;77.40
13992;DHT22;7070;53.586;9.692;2022-08-19T09:53:49;23.00;77.20
13992;DHT22;7070;53.586;9.692;2022-08-19T09:56:18;23.00;77.20
13992;DHT22;7070;53.586;9.692;2022-08-19T09:58:46;23.00;77.00
13992;DHT22;7070;53.586;9.692;2022-08-19T10:01:19;23.00;76.70
13992;DHT22;7070;53.586;9.692;2022-08-19T10:03:48;23.00;76.60
13992;DHT22;7070;53.586;9.692;2022-08-19T10:06:15;23.00;76.60
13992;DHT22;7070;53.586;9.692;2022-08-19T10:08:42;22.90;76.40
13992;DHT22;7070;53.586;9.692;2022-08-19T10:11:09;22.80;76.40
13992;DHT22;7070;53.586;9.692;2022-08-19T10:13:36;22.70;76.50
13992;DHT22;7070;53.586;9.692;2022-08-19T10:16:06;22.70;76.60
13992;DHT22;7070;53.586;9.692;2022-08-19T10:18:36;22.60;76.70
13992;DHT22;7070;53.586;9.692;2022-08-19T10:21:05;22.50;76.80
13992;DHT22;7070;53.586;9.692;2022-08-19T10:23:35;22.50;77.20
13992;DHT22;7070;53.586;9.692;2022-08-19T10:26:03;22.50;77.30
13992;DHT22;7070;53.586;9.692;2022-08-19T10:28:32;22.40;77.30
13992;DHT22;7070;53.586;9.692;2022-08-19T10:31:04;22.40;77.40
13992;DHT22;7070;53.586;9.692;2022-08-19T10:33:32;22.50;77.50
13992;DHT22;7070;53.586;9.692;2022-08-19T10:36:01;22.40;78.40
13992;DHT22;7070;53.586;9.692;2022-08-19T10:38:28;22.60;77.80
13992;DHT22;7070;53.586;9.692;2022-08-19T10:40:55;22.60;77.80
13992;DHT22;7070;53.586;9.692;2022-08-19T10:43:22;22.60;77.60
13992;DHT22;7070;53.586;9.692;2022-08-19T10:45:52;22.70;77.50
13992;DHT22;7070;53.586;9.692;2022-08-19T10:48:21;22.70;77.40
13992;DHT22;7070;53.586;9.692;2022-08-19T10:50:48;22.70;77.50
13992;DHT22;7070;53.586;9.692;2022-08-19T10:53:34;22.80;77.60
13992;DHT22;7070;53.586;9.692;2022-08-19T10:56:03;22.90;77.70
13992;DHT22;7070;53.586;9.692;2022-08-19T10:58:48;23.00;77.90
13992;DHT22;7070;53.586;9.692;2022-08-19T11:01:15;23.10;77.70
13992;DHT22;7070;53.586;9.692;2022-08-19T11:03:41;23.20;77.50
13992;DHT22;7070;53.586;9.692;2022-08-19T11:06:11;23.40;77.50
13992;DHT22;7070;53.586;9.692;2022-08-19T11:08:40;23.60;77.40
13992;DHT22;7070;53.586;9.692;2022-08-19T11:11:10;23.70;77.10
13992;DHT22;7070;53.586;9.692;2022-08-19T11:13:40;23.80;76.80
13992;DHT22;7070;53.586;9.692;2022-08-19T11:16:09;23.90;76.50
13992;DHT22;7070;53.586;9.692;2022-08-19T11:18:38;24.00;76.30
13992;DHT22;7070;53.586;9.692;2022-08-19T11:21:08;24.00;76.40
13992;DHT22;7070;53.586;9.692;2022-08-19T11:23:36;24.20;76.40
13992;DHT22;7070;53.586;9.692;2022-08-19T11:26:04;24.30;76.40
13992;DHT22;7070;53.586;9.692;2022-08-19T11:28:31;24.40;76.10
13992;DHT22;7070;53.586;9.692;2022-08-19T11:30:58;24.50;75.70
13992;DHT22;7070;53.586;9.692;2022-08-19T11:33:25;24.60;75.70
13992;DHT22;7070;53.586;9.692;2022-08-19T11:35:52;24.70;75.90
13992;DHT22;7070;53.586;9.692;2022-08-19T11:38:19;24.90;75.60
13992;DHT22;7070;53.586;9.692;2022-08-19T11:40:54;25.00;75.40
13992;DHT22;7070;53.586;9.692;2022-08-19T11:43:22;25.30;75.40
13992;DHT22;7070;53.586;9.692;2022-08-19T11:45:50;25.40;75.00
13992;DHT22;7070;53.586;9.692;2022-08-19T11:48:16;25.40;74.30
13992;DHT22;7070;53.586;9.692;2022-08-19T11:50:48;25.60;74.30
13992;DHT22;7070;53.586;9.692;2022-08-19T11:53:15;25.60;74.20
13992;DHT22;7070;53.586;9.692;2022-08-19T11:55:42;25.70;74.50
13992;DHT22;7070;53.586;9.692;2022-08-19T11:58:10;25.80;74.40
13992;DHT22;7070;53.586;9.692;2022-08-19T12:00:39;27.00;74.60
13992;DHT22;7070;53.586;9.692;2022-08-19T12:03:07;26.10;73.60
13992;DHT22;7070;53.586;9.692;2022-08-19T12:05:37;26.30;73.30
13992;DHT22;7070;53.586;9.692;2022-08-19T12:08:04;26.40;72.90
13992;DHT22;7070;53.586;9.692;2022-08-19T12:10:31;26.50;72.60
13992;DHT22;7070;53.586;9.692;2022-08-19T12:12:58;26.60;72.60
13992;DHT22;7070;53.586;9.692;2022-08-19T12:15:25;26.70;72.70
13992;DHT22;7070;53.586;9.692;2022-08-19T12:17:56;26.80;72.30
13992;DHT22;7070;53.586;9.692;2022-08-19T12:20:24;26.90;72.40
13992;DHT22;7070;53.586;9.692;2022-08-19T12:22:51;27.00;72.10
13992;DHT22;7070;53.586;9.692;2022-08-19T12:25:18;27.00;71.90
13992;DHT22;7070;53.586;9.692;2022-08-19T12:27:46;27.10;71.90
13992;DHT22;7070;53.586;9.692;2022-08-19T12:30:15;27.20;71.80
13992;DHT22;7070;53.586;9.692;2022-08-19T12:32:42;27.40;71.40
13992;DHT22;7070;53.586;9.692;2022-08-19T12:35:10;27.40;70.60
13992;DHT22;7070;53.586;9.692;2022-08-19T12:37:38;27.50;70.30
13992;DHT22;7070;53.586;9.692;2022-08-19T12:40:08;27.40;70.00
13992;DHT22;7070;53.586;9.692;2022-08-19T12:42:37;27.40;70.10
13992;DHT22;7070;53.586;9.692;2022-08-19T12:45:08;27.40;70.20
13992;DHT22;7070;53.586;9.692;2022-08-19T12:47:35;27.40;70.20
13992;DHT22;7070;53.586;9.692;2022-08-19T12:50:02;27.40;69.90
13992;DHT22;7070;53.586;9.692;2022-08-19T12:52:31;27.30;69.60
13992;DHT22;7070;53.586;9.692;2022-08-19T12:54:58;27.30;69.80
13992;DHT22;7070;53.586;9.692;2022-08-19T12:57:27;27.30;69.90
13992;DHT22;7070;53.586;9.692;2022-08-19T12:59:54;27.20;70.10
13992;DHT22;7070;53.586;9.692;2022-08-19T13:02:21;27.30;70.20
13992;DHT22;7070;53.586;9.692;2022-08-19T13:04:48;27.30;70.20
13992;DHT22;7070;53.586;9.692;2022-08-19T13:07:15;27.30;69.90
13992;DHT22;7070;53.586;9.692;2022-08-19T13:09:43;27.30;69.90
13992;DHT22;7070;53.586;9.692;2022-08-19T13:12:10;27.20;69.90
13992;DHT22;7070;53.586;9.692;2022-08-19T13:14:38;27.30;70.10
13992;DHT22;7070;53.586;9.692;2022-08-19T13:17:05;27.30;70.50
13992;DHT22;7070;53.586;9.692;2022-08-19T13:19:35;27.30;70.20
13992;DHT22;7070;53.586;9.692;2022-08-19T13:22:02;27.40;70.00
13992;DHT22;7070;53.586;9.692;2022-08-19T13:24:30;27.40;69.60
13992;DHT22;7070;53.586;9.692;2022-08-19T13:26:59;27.40;69.50
13992;DHT22;7070;53.586;9.692;2022-08-19T13:29:26;27.40;69.60
13992;DHT22;7070;53.586;9.692;2022-08-19T13:32:10;27.40;69.70
13992;DHT22;7070;53.586;9.692;2022-08-19T13:34:54;27.40;69.60
13992;DHT22;7070;53.586;9.692;2022-08-19T13:37:22;27.40;69.40
13992;DHT22;7070;53.586;9.692;2022-08-19T13:40:07;27.40;69.50
13992;DHT22;7070;53.586;9.692;2022-08-19T13:42:40;27.40;69.60
13992;DHT22;7070;53.586;9.692;2022-08-19T13:45:08;27.40;69.50
13992;DHT22;7070;53.586;9.692;2022-08-19T13:47:35;27.50;69.70
13992;DHT22;7070;53.586;9.692;2022-08-19T13:50:09;27.50;69.70
13992;DHT22;7070;53.586;9.692;2022-08-19T13:52:37;27.50;69.60
13992;DHT22;7070;53.586;9.692;2022-08-19T13:55:04;27.50;69.10
13992;DHT22;7070;53.586;9.692;2022-08-19T13:57:32;27.50;69.00
13992;DHT22;7070;53.586;9.692;2022-08-19T14:00:00;27.50;68.60
13992;DHT22;7070;53.586;9.692;2022-08-19T14:02:27;27.40;68.60
13992;DHT22;7070;53.586;9.692;2022-08-19T14:04:54;27.30;68.80
13992;DHT22;7070;53.586;9.692;2022-08-19T14:07:21;27.20;69.00
13992;DHT22;7070;53.586;9.692;2022-08-19T14:09:49;27.20;69.90
13992;DHT22;7070;53.586;9.692;2022-08-19T14:12:19;27.10;68.80
13992;DHT22;7070;53.586;9.692;2022-08-19T14:14:45;27.10;69.00
13992;DHT22;7070;53.586;9.692;2022-08-19T14:17:14;27.00;68.90
13992;DHT22;7070;53.586;9.692;2022-08-19T14:19:42;27.00;69.10
13992;DHT22;7070;53.586;9.692;2022-08-19T14:22:09;26.90;68.80
13992;DHT22;7070;53.586;9.692;2022-08-19T14:24:37;26.90;68.80
13992;DHT22;7070;53.586;9.692;2022-08-19T14:27:05;26.80;69.10
13992;DHT22;7070;53.586;9.692;2022-08-19T14:29:32;26.80;69.30
13992;DHT22;7070;53.586;9.692;2022-08-19T14:31:59;26.90;69.10
13992;DHT22;7070;53.586;9.692;2022-08-19T14:34:28;26.90;68.90
13992;DHT22;7070;53.586;9.692;2022-08-19T14:36:57;26.90;68.80
13992;DHT22;7070;53.586;9.692;2022-08-19T14:39:23;26.90;68.60
13992;DHT22;7070;53.586;9.692;2022-08-19T14:41:50;26.80;68.70
13992;DHT22;7070;53.586;9.692;2022-08-19T14:44:17;26.90;68.90
13992;DHT22;7070;53.586;9.692;2022-08-19T14:46:45;26.90;68.90
13992;DHT22;7070;53.586;9.692;2022-08-19T14:49:12;26.90;68.60
13992;DHT22;7070;53.586;9.692;2022-08-19T14:51:40;26.80;68.40
13992;DHT22;7070;53.586;9.692;2022-08-19T14:54:07;26.80;68.40
13992;DHT22;7070;53.586;9.692;2022-08-19T14:56:34;26.70;68.30
13992;DHT22;7070;53.586;9.692;2022-08-19T14:59:00;26.60;68.60
13992;DHT22;7070;53.586;9.692;2022-08-19T15:01:27;26.60;68.80
13992;DHT22;7070;53.586;9.692;2022-08-19T15:03:54;26.50;68.70
13992;DHT22;7070;53.586;9.692;2022-08-19T15:06:21;26.50;68.40
13992;DHT22;7070;53.586;9.692;2022-08-19T15:08:50;26.40;68.30
13992;DHT22;7070;53.586;9.692;2022-08-19T15:11:21;26.20;68.20
13992;DHT22;7070;53.586;9.692;2022-08-19T15:13:49;26.10;68.50
13992;DHT22;7070;53.586;9.692;2022-08-19T15:16:16;26.10;68.80
13992;DHT22;7070;53.586;9.692;2022-08-19T15:18:44;26.00;68.90
13992;DHT22;7070;53.586;9.692;2022-08-19T15:21:12;25.90;69.20
13992;DHT22;7070;53.586;9.692;2022-08-19T15:23:40;25.90;69.20
13992;DHT22;7070;53.586;9.692;2022-08-19T15:26:08;25.90;69.40
13992;DHT22;7070;53.586;9.692;2022-08-19T15:28:36;25.80;69.60
13992;DHT22;7070;53.586;9.692;2022-08-19T15:31:03;25.80;69.80
13992;DHT22;7070;53.586;9.692;2022-08-19T15:33:31;25.80;69.90
13992;DHT22;7070;53.586;9.692;2022-08-19T15:36:00;25.90;70.00
13992;DHT22;7070;53.586;9.692;2022-08-19T15:38:29;25.90;69.60
13992;DHT22;7070;53.586;9.692;2022-08-19T15:40:56;25.90;69.40
13992;DHT22;7070;53.586;9.692;2022-08-19T15:43:45;26.00;69.50
13992;DHT22;7070;53.586;9.692;2022-08-19T15:46:11;26.00;69.50
13992;DHT22;7070;53.586;9.692;2022-08-19T15:48:38;26.00;69.50
13992;DHT22;7070;53.586;9.692;2022-08-19T15:51:05;26.10;69.60
13992;DHT22;7070;53.586;9.692;2022-08-19T15:53:32;26.10;70.30
13992;DHT22;7070;53.586;9.692;2022-08-19T15:55:59;26.10;69.30